sensor_id;sensor_type;location;lat;lon;timestamp;P1;durP1;ratioP1;P2;durP2;ratioP2
75537;SDS011;64121;48.666;8.114;2023-04-15T00:01:31;4.63;;;1.98;;
75537;SDS011;64121;48.666;8.114;2023-04-15T00:03:56;2.95;;;1.40;;
75537;SDS011;64121;48.666;8.114;2023-04-15T00:06:22;3.65;;;1.67;;
75537;SDS011;64121;48.666;8.114;2023-04-15T00:08:47;2.60;;;1.60;;
75537;SDS011;64121;48.666;8.114;2023-04-15T00:11:15;3.35;;;1.75;;
75537;SDS011;64121;48.666;8.114;2023-04-15T00:13:40;3.55;;;1.90;;
75537;SDS011;64121;48.666;8.114;2023-04-15T00:16:06;4.10;;;2.22;;
75537;SDS011;64121;48.666;8.114;2023-04-15T00:18:32;3.38;;;2.00;;
75537;SDS011;64121;48.666;8.114;2023-04-15T00:20:58;3.90;;;1.90;;
75537;SDS011;64121;48.666;8.114;2023-04-15T00:23:23;5.78;;;2.30;;
75537;SDS011;64121;48.666;8.114;2023-04-15T00:25:49;4.05;;;2.42;;
75537;SDS011;64121;48.666;8.114;2023-04-15T00:28:16;5.07;;;2.40;;
75537;SDS011;64121;48.666;8.114;2023-04-15T00:30:41;4.18;;;2.47;;
75537;SDS011;64121;48.666;8.114;2023-04-15T00:33:07;5.30;;;2.85;;
75537;SDS011;64121;48.666;8.114;2023-04-15T00:35:32;6.30;;;2.92;;
75537;SDS011;64121;48.666;8.114;2023-04-15T00:37:57;6.30;;;3.38;;
75537;SDS011;64121;48.666;8.114;2023-04-15T00:40:23;4.35;;;2.67;;
75537;SDS011;64121;48.666;8.114;2023-04-15T00:42:48;6.18;;;3.53;;
75537;SDS011;64121;48.666;8.114;2023-04-15T00:45:15;5.43;;;2.67;;
75537;SDS011;64121;48.666;8.114;2023-04-15T00:47:41;4.95;;;2.65;;
75537;SDS011;64121;48.666;8.114;2023-04-15T00:50:08;4.78;;;2.50;;
75537;SDS011;64121;48.666;8.114;2023-04-15T00:52:34;3.95;;;1.92;;
75537;SDS011;64121;48.666;8.114;2023-04-15T00:54:59;4.10;;;1.77;;
75537;SDS011;64121;48.666;8.114;2023-04-15T00:57:25;5.00;;;1.65;;
75537;SDS011;64121;48.666;8.114;2023-04-15T00:59:52;4.43;;;1.80;;
75537;SDS011;64121;48.666;8.114;2023-04-15T01:02:20;5.38;;;1.83;;
75537;SDS011;64121;48.666;8.114;2023-04-15T01:04:46;2.60;;;1.92;;
75537;SDS011;64121;48.666;8.114;2023-04-15T01:07:12;3.15;;;1.95;;
75537;SDS011;64121;48.666;8.114;2023-04-15T01:09:37;3.40;;;1.83;;
75537;SDS011;64121;48.666;8.114;2023-04-15T01:12:03;6.53;;;2.05;;
75537;SDS011;64121;48.666;8.114;2023-04-15T01:14:29;4.75;;;2.03;;
75537;SDS011;64121;48.666;8.114;2023-04-15T01:16:55;4.45;;;2.25;;
75537;SDS011;64121;48.666;8.114;2023-04-15T01:19:22;5.50;;;2.38;;
75537;SDS011;64121;48.666;8.114;2023-04-15T01:21:47;4.40;;;1.98;;
75537;SDS011;64121;48.666;8.114;2023-04-15T01:24:13;3.33;;;1.70;;
75537;SDS011;64121;48.666;8.114;2023-04-15T01:26:44;4.05;;;1.75;;
75537;SDS011;64121;48.666;8.114;2023-04-15T01:29:09;3.00;;;1.60;;
75537;SDS011;64121;48.666;8.114;2023-04-15T01:31:35;3.50;;;2.03;;
75537;SDS011;64121;48.666;8.114;2023-04-15T01:34:00;3.30;;;1.67;;
75537;SDS011;64121;48.666;8.114;2023-04-15T01:36:25;7.30;;;2.05;;
75537;SDS011;64121;48.666;8.114;2023-04-15T01:38:51;5.03;;;1.40;;
75537;SDS011;64121;48.666;8.114;2023-04-15T01:41:18;4.55;;;1.50;;
75537;SDS011;64121;48.666;8.114;2023-04-15T01:43:47;3.55;;;1.80;;
75537;SDS011;64121;48.666;8.114;2023-04-15T01:46:12;3.60;;;1.63;;
75537;SDS011;64121;48.666;8.114;2023-04-15T01:48:37;3.70;;;1.60;;
75537;SDS011;64121;48.666;8.114;2023-04-15T01:51:03;3.50;;;1.75;;
75537;SDS011;64121;48.666;8.114;2023-04-15T01:53:28;2.58;;;1.42;;
75537;SDS011;64121;48.666;8.114;2023-04-15T01:55:54;5.22;;;1.33;;
75537;SDS011;64121;48.666;8.114;2023-04-15T01:58:19;3.50;;;1.70;;
75537;SDS011;64121;48.666;8.114;2023-04-15T02:00:46;2.50;;;1.27;;
75537;SDS011;64121;48.666;8.114;2023-04-15T02:03:11;2.58;;;1.13;;
75537;SDS011;64121;48.666;8.114;2023-04-15T02:05:36;3.00;;;1.38;;
75537;SDS011;64121;48.666;8.114;2023-04-15T02:08:02;2.85;;;1.30;;
75537;SDS011;64121;48.666;8.114;2023-04-15T02:10:27;3.13;;;1.40;;
75537;SDS011;64121;48.666;8.114;2023-04-15T02:12:53;2.05;;;1.13;;
75537;SDS011;64121;48.666;8.114;2023-04-15T02:15:18;3.53;;;1.48;;
75537;SDS011;64121;48.666;8.114;2023-04-15T02:17:45;2.65;;;1.17;;
75537;SDS011;64121;48.666;8.114;2023-04-15T02:20:10;3.30;;;1.10;;
75537;SDS011;64121;48.666;8.114;2023-04-15T02:22:36;2.50;;;1.10;;
75537;SDS011;64121;48.666;8.114;2023-04-15T02:25:01;2.22;;;1.20;;
75537;SDS011;64121;48.666;8.114;2023-04-15T02:27:26;2.38;;;1.40;;
75537;SDS011;64121;48.666;8.114;2023-04-15T02:29:52;5.00;;;1.50;;
75537;SDS011;64121;48.666;8.114;2023-04-15T02:32:17;3.33;;;1.40;;
75537;SDS011;64121;48.666;8.114;2023-04-15T02:34:44;3.65;;;1.27;;
75537;SDS011;64121;48.666;8.114;2023-04-15T02:37:10;2.40;;;1.25;;
75537;SDS011;64121;48.666;8.114;2023-04-15T02:39:36;1.95;;;1.08;;
75537;SDS011;64121;48.666;8.114;2023-04-15T02:42:02;2.22;;;1.00;;
75537;SDS011;64121;48.666;8.114;2023-04-15T02:44:27;2.78;;;1.00;;
75537;SDS011;64121;48.666;8.114;2023-04-15T02:46:53;3.13;;;1.33;;
75537;SDS011;64121;48.666;8.114;2023-04-15T02:49:18;2.40;;;0.95;;
75537;SDS011;64121;48.666;8.114;2023-04-15T02:51:45;3.10;;;1.38;;
75537;SDS011;64121;48.666;8.114;2023-04-15T02:54:11;2.75;;;1.67;;
75537;SDS011;64121;48.666;8.114;2023-04-15T02:56:36;2.38;;;1.40;;
75537;SDS011;64121;48.666;8.114;2023-04-15T02:59:02;2.58;;;1.10;;
75537;SDS011;64121;48.666;8.114;2023-04-15T03:01:27;3.33;;;1.30;;
75537;SDS011;64121;48.666;8.114;2023-04-15T03:03:52;3.90;;;1.35;;
75537;SDS011;64121;48.666;8.114;2023-04-15T03:06:18;2.45;;;1.40;;
75537;SDS011;64121;48.666;8.114;2023-04-15T03:08:44;2.40;;;1.40;;
75537;SDS011;64121;48.666;8.114;2023-04-15T03:11:10;2.03;;;1.30;;
75537;SDS011;64121;48.666;8.114;2023-04-15T03:13:35;3.15;;;1.20;;
75537;SDS011;64121;48.666;8.114;2023-04-15T03:16:00;2.25;;;1.17;;
75537;SDS011;64121;48.666;8.114;2023-04-15T03:18:26;3.60;;;1.60;;
75537;SDS011;64121;48.666;8.114;2023-04-15T03:20:51;2.42;;;1.05;;
75537;SDS011;64121;48.666;8.114;2023-04-15T03:23:16;3.78;;;1.42;;
75537;SDS011;64121;48.666;8.114;2023-04-15T03:25:44;2.20;;;1.13;;
75537;SDS011;64121;48.666;8.114;2023-04-15T03:28:10;2.28;;;1.33;;
75537;SDS011;64121;48.666;8.114;2023-04-15T03:30:35;3.83;;;1.35;;
75537;SDS011;64121;48.666;8.114;2023-04-15T03:33:00;2.88;;;1.30;;
75537;SDS011;64121;48.666;8.114;2023-04-15T03:35:26;3.88;;;2.20;;
75537;SDS011;64121;48.666;8.114;2023-04-15T03:37:51;3.63;;;2.63;;
75537;SDS011;64121;48.666;8.114;2023-04-15T03:40:16;3.28;;;2.30;;
75537;SDS011;64121;48.666;8.114;2023-04-15T03:42:43;2.97;;;2.05;;
75537;SDS011;64121;48.666;8.114;2023-04-15T03:45:09;3.47;;;2.30;;
75537;SDS011;64121;48.666;8.114;2023-04-15T03:47:35;3.45;;;1.90;;
75537;SDS011;64121;48.666;8.114;2023-04-15T03:50:00;3.38;;;1.65;;
75537;SDS011;64121;48.666;8.114;2023-04-15T03:52:26;3.47;;;1.90;;
75537;SDS011;64121;48.666;8.114;2023-04-15T03:54:51;2.22;;;1.67;;
75537;SDS011;64121;48.666;8.114;2023-04-15T03:57:16;2.95;;;1.60;;
75537;SDS011;64121;48.666;8.114;2023-04-15T03:59:43;3.10;;;1.50;;
75537;SDS011;64121;48.666;8.114;2023-04-15T04:02:08;2.05;;;1.42;;
75537;SDS011;64121;48.666;8.114;2023-04-15T04:04:34;3.08;;;1.75;;
75537;SDS011;64121;48.666;8.114;2023-04-15T04:06:59;1.92;;;1.40;;
75537;SDS011;64121;48.666;8.114;2023-04-15T04:09:24;3.97;;;1.92;;
75537;SDS011;64121;48.666;8.114;2023-04-15T04:11:50;3.00;;;1.58;;
75537;SDS011;64121;48.666;8.114;2023-04-15T04:14:15;3.75;;;1.55;;
75537;SDS011;64121;48.666;8.114;2023-04-15T04:16:42;2.90;;;1.48;;
75537;SDS011;64121;48.666;8.114;2023-04-15T04:19:07;2.35;;;1.60;;
75537;SDS011;64121;48.666;8.114;2023-04-15T04:21:32;3.75;;;1.88;;
75537;SDS011;64121;48.666;8.114;2023-04-15T04:23:58;2.65;;;1.58;;
75537;SDS011;64121;48.666;8.114;2023-04-15T04:26:23;3.00;;;1.95;;
75537;SDS011;64121;48.666;8.114;2023-04-15T04:28:49;3.88;;;1.80;;
75537;SDS011;64121;48.666;8.114;2023-04-15T04:31:14;2.40;;;1.58;;
75537;SDS011;64121;48.666;8.114;2023-04-15T04:33:41;3.47;;;1.50;;
75537;SDS011;64121;48.666;8.114;2023-04-15T04:36:06;4.30;;;1.88;;
75537;SDS011;64121;48.666;8.114;2023-04-15T04:38:31;2.72;;;1.65;;
75537;SDS011;64121;48.666;8.114;2023-04-15T04:40:57;3.08;;;1.75;;
75537;SDS011;64121;48.666;8.114;2023-04-15T04:43:22;2.55;;;1.60;;
75537;SDS011;64121;48.666;8.114;2023-04-15T04:45:48;3.78;;;1.73;;
75537;SDS011;64121;48.666;8.114;2023-04-15T04:48:13;3.22;;;1.80;;
75537;SDS011;64121;48.666;8.114;2023-04-15T04:50:40;3.40;;;1.85;;
75537;SDS011;64121;48.666;8.114;2023-04-15T04:53:05;3.88;;;2.13;;
75537;SDS011;64121;48.666;8.114;2023-04-15T04:55:30;3.58;;;1.90;;
75537;SDS011;64121;48.666;8.114;2023-04-15T04:57:56;4.03;;;1.90;;
75537;SDS011;64121;48.666;8.114;2023-04-15T05:00:21;2.97;;;1.90;;
75537;SDS011;64121;48.666;8.114;2023-04-15T05:02:46;4.20;;;1.95;;
75537;SDS011;64121;48.666;8.114;2023-04-15T05:05:12;2.67;;;1.88;;
75537;SDS011;64121;48.666;8.114;2023-04-15T05:07:38;2.95;;;1.77;;
75537;SDS011;64121;48.666;8.114;2023-04-15T05:10:04;3.85;;;1.75;;
75537;SDS011;64121;48.666;8.114;2023-04-15T05:12:31;2.47;;;1.60;;
75537;SDS011;64121;48.666;8.114;2023-04-15T05:14:56;3.17;;;1.80;;
75537;SDS011;64121;48.666;8.114;2023-04-15T05:17:21;3.72;;;2.05;;
75537;SDS011;64121;48.666;8.114;2023-04-15T05:19:47;3.30;;;1.45;;
75537;SDS011;64121;48.666;8.114;2023-04-15T05:22:12;2.78;;;2.15;;
75537;SDS011;64121;48.666;8.114;2023-04-15T05:24:39;3.53;;;1.60;;
75537;SDS011;64121;48.666;8.114;2023-04-15T05:27:04;7.97;;;2.25;;
75537;SDS011;64121;48.666;8.114;2023-04-15T05:29:29;4.47;;;2.10;;
75537;SDS011;64121;48.666;8.114;2023-04-15T05:31:55;2.63;;;1.35;;
75537;SDS011;64121;48.666;8.114;2023-04-15T05:34:20;5.80;;;1.90;;
75537;SDS011;64121;48.666;8.114;2023-04-15T05:36:46;3.13;;;2.45;;
75537;SDS011;64121;48.666;8.114;2023-04-15T05:39:11;3.10;;;1.80;;
75537;SDS011;64121;48.666;8.114;2023-04-15T05:41:38;4.75;;;2.33;;
75537;SDS011;64121;48.666;8.114;2023-04-15T05:44:03;5.97;;;3.22;;
75537;SDS011;64121;48.666;8.114;2023-04-15T05:46:29;6.25;;;3.40;;
75537;SDS011;64121;48.666;8.114;2023-04-15T05:48:54;5.40;;;3.58;;
75537;SDS011;64121;48.666;8.114;2023-04-15T05:51:19;6.15;;;3.40;;
75537;SDS011;64121;48.666;8.114;2023-04-15T05:53:45;8.95;;;4.35;;
75537;SDS011;64121;48.666;8.114;2023-04-15T05:56:10;8.10;;;5.05;;
75537;SDS011;64121;48.666;8.114;2023-04-15T05:58:37;9.70;;;4.70;;
75537;SDS011;64121;48.666;8.114;2023-04-15T06:01:02;6.25;;;4.50;;
75537;SDS011;64121;48.666;8.114;2023-04-15T06:03:28;7.13;;;4.60;;
75537;SDS011;64121;48.666;8.114;2023-04-15T06:05:53;7.13;;;4.30;;
75537;SDS011;64121;48.666;8.114;2023-04-15T06:08:18;5.63;;;3.33;;
75537;SDS011;64121;48.666;8.114;2023-04-15T06:10:44;6.57;;;3.85;;
75537;SDS011;64121;48.666;8.114;2023-04-15T06:13:09;6.90;;;4.03;;
75537;SDS011;64121;48.666;8.114;2023-04-15T06:15:36;8.20;;;4.15;;
75537;SDS011;64121;48.666;8.114;2023-04-15T06:18:01;5.55;;;2.63;;
75537;SDS011;64121;48.666;8.114;2023-04-15T06:20:27;5.55;;;2.55;;
75537;SDS011;64121;48.666;8.114;2023-04-15T06:22:52;5.57;;;3.05;;
75537;SDS011;64121;48.666;8.114;2023-04-15T06:25:17;6.53;;;3.50;;
75537;SDS011;64121;48.666;8.114;2023-04-15T06:27:43;6.13;;;3.60;;
75537;SDS011;64121;48.666;8.114;2023-04-15T06:30:08;5.53;;;3.60;;
75537;SDS011;64121;48.666;8.114;2023-04-15T06:32:36;5.85;;;3.40;;
75537;SDS011;64121;48.666;8.114;2023-04-15T06:35:01;5.25;;;3.35;;
75537;SDS011;64121;48.666;8.114;2023-04-15T06:37:26;5.32;;;3.42;;
75537;SDS011;64121;48.666;8.114;2023-04-15T06:39:52;5.20;;;3.22;;
75537;SDS011;64121;48.666;8.114;2023-04-15T06:42:17;7.65;;;3.47;;
75537;SDS011;64121;48.666;8.114;2023-04-15T06:44:42;6.25;;;3.50;;
75537;SDS011;64121;48.666;8.114;2023-04-15T06:47:08;4.70;;;2.85;;
75537;SDS011;64121;48.666;8.114;2023-04-15T06:49:34;4.97;;;2.80;;
75537;SDS011;64121;48.666;8.114;2023-04-15T06:52:00;7.28;;;3.22;;
75537;SDS011;64121;48.666;8.114;2023-04-15T06:54:26;5.60;;;3.55;;
75537;SDS011;64121;48.666;8.114;2023-04-15T06:56:51;6.95;;;3.10;;
75537;SDS011;64121;48.666;8.114;2023-04-15T06:59:16;6.22;;;3.35;;
75537;SDS011;64121;48.666;8.114;2023-04-15T07:01:42;6.95;;;3.30;;
75537;SDS011;64121;48.666;8.114;2023-04-15T07:04:07;4.60;;;3.42;;
75537;SDS011;64121;48.666;8.114;2023-04-15T07:06:34;5.63;;;3.50;;
75537;SDS011;64121;48.666;8.114;2023-04-15T07:09:00;5.65;;;3.85;;
75537;SDS011;64121;48.666;8.114;2023-04-15T07:11:25;5.80;;;3.10;;
75537;SDS011;64121;48.666;8.114;2023-04-15T07:13:51;6.05;;;3.50;;
75537;SDS011;64121;48.666;8.114;2023-04-15T07:16:16;6.18;;;3.10;;
75537;SDS011;64121;48.666;8.114;2023-04-15T07:18:42;5.90;;;3.33;;
75537;SDS011;64121;48.666;8.114;2023-04-15T07:21:07;5.80;;;3.38;;
75537;SDS011;64121;48.666;8.114;2023-04-15T07:23:34;5.03;;;3.00;;
75537;SDS011;64121;48.666;8.114;2023-04-15T07:25:59;5.63;;;3.90;;
75537;SDS011;64121;48.666;8.114;2023-04-15T07:28:24;6.85;;;4.43;;
75537;SDS011;64121;48.666;8.114;2023-04-15T07:30:50;8.43;;;3.92;;
75537;SDS011;64121;48.666;8.114;2023-04-15T07:33:15;5.80;;;3.28;;
75537;SDS011;64121;48.666;8.114;2023-04-15T07:35:41;4.35;;;3.20;;
75537;SDS011;64121;48.666;8.114;2023-04-15T07:38:06;4.88;;;3.55;;
75537;SDS011;64121;48.666;8.114;2023-04-15T07:40:33;9.25;;;4.25;;
75537;SDS011;64121;48.666;8.114;2023-04-15T07:42:58;6.25;;;3.45;;
75537;SDS011;64121;48.666;8.114;2023-04-15T07:45:24;7.70;;;3.72;;
75537;SDS011;64121;48.666;8.114;2023-04-15T07:47:49;4.18;;;3.10;;
75537;SDS011;64121;48.666;8.114;2023-04-15T07:50:14;5.05;;;3.10;;
75537;SDS011;64121;48.666;8.114;2023-04-15T07:52:40;5.35;;;3.38;;
75537;SDS011;64121;48.666;8.114;2023-04-15T07:55:06;4.30;;;3.25;;
75537;SDS011;64121;48.666;8.114;2023-04-15T07:57:33;6.35;;;3.30;;
75537;SDS011;64121;48.666;8.114;2023-04-15T07:59:59;5.82;;;3.30;;
75537;SDS011;64121;48.666;8.114;2023-04-15T08:02:24;7.90;;;3.00;;
75537;SDS011;64121;48.666;8.114;2023-04-15T08:04:50;5.38;;;3.55;;
75537;SDS011;64121;48.666;8.114;2023-04-15T08:07:15;6.40;;;3.00;;
75537;SDS011;64121;48.666;8.114;2023-04-15T08:09:40;4.00;;;2.80;;
75537;SDS011;64121;48.666;8.114;2023-04-15T08:12:06;5.70;;;3.08;;
75537;SDS011;64121;48.666;8.114;2023-04-15T08:14:33;4.15;;;3.08;;
75537;SDS011;64121;48.666;8.114;2023-04-15T08:16:59;3.85;;;3.10;;
75537;SDS011;64121;48.666;8.114;2023-04-15T08:19:24;7.05;;;3.47;;
75537;SDS011;64121;48.666;8.114;2023-04-15T08:21:50;4.45;;;2.97;;
75537;SDS011;64121;48.666;8.114;2023-04-15T08:24:15;6.80;;;3.47;;
75537;SDS011;64121;48.666;8.114;2023-04-15T08:26:40;8.60;;;3.17;;
75537;SDS011;64121;48.666;8.114;2023-04-15T08:29:06;6.35;;;3.47;;
75537;SDS011;64121;48.666;8.114;2023-04-15T08:31:32;7.10;;;3.03;;
75537;SDS011;64121;48.666;8.114;2023-04-15T08:33:58;5.90;;;3.33;;
75537;SDS011;64121;48.666;8.114;2023-04-15T08:36:23;6.57;;;3.47;;
75537;SDS011;64121;48.666;8.114;2023-04-15T08:38:49;5.95;;;3.10;;
75537;SDS011;64121;48.666;8.114;2023-04-15T08:41:17;5.10;;;2.67;;
75537;SDS011;64121;48.666;8.114;2023-04-15T08:43:45;4.32;;;2.42;;
75537;SDS011;64121;48.666;8.114;2023-04-15T08:46:16;7.75;;;2.47;;
75537;SDS011;64121;48.666;8.114;2023-04-15T08:48:43;3.83;;;2.13;;
75537;SDS011;64121;48.666;8.114;2023-04-15T08:51:11;5.30;;;1.85;;
75537;SDS011;64121;48.666;8.114;2023-04-15T08:53:37;4.30;;;1.80;;
75537;SDS011;64121;48.666;8.114;2023-04-15T08:56:03;4.95;;;1.48;;
75537;SDS011;64121;48.666;8.114;2023-04-15T08:58:31;3.75;;;1.63;;
75537;SDS011;64121;48.666;8.114;2023-04-15T09:00:57;4.50;;;1.50;;
75537;SDS011;64121;48.666;8.114;2023-04-15T09:03:22;4.72;;;2.05;;
75537;SDS011;64121;48.666;8.114;2023-04-15T09:05:49;3.17;;;2.15;;
75537;SDS011;64121;48.666;8.114;2023-04-15T09:08:15;3.75;;;1.80;;
75537;SDS011;64121;48.666;8.114;2023-04-15T09:10:40;6.50;;;3.05;;
75537;SDS011;64121;48.666;8.114;2023-04-15T09:13:05;3.95;;;1.60;;
75537;SDS011;64121;48.666;8.114;2023-04-15T09:15:31;3.53;;;1.30;;
75537;SDS011;64121;48.666;8.114;2023-04-15T09:17:57;4.13;;;1.40;;
75537;SDS011;64121;48.666;8.114;2023-04-15T09:20:22;3.60;;;1.60;;
75537;SDS011;64121;48.666;8.114;2023-04-15T09:22:49;3.58;;;1.52;;
75537;SDS011;64121;48.666;8.114;2023-04-15T09:25:25;3.22;;;1.33;;
75537;SDS011;64121;48.666;8.114;2023-04-15T09:27:52;5.85;;;1.70;;
75537;SDS011;64121;48.666;8.114;2023-04-15T09:30:18;2.78;;;1.40;;
75537;SDS011;64121;48.666;8.114;2023-04-15T09:32:48;3.10;;;1.33;;
75537;SDS011;64121;48.666;8.114;2023-04-15T09:35:14;4.97;;;1.52;;
75537;SDS011;64121;48.666;8.114;2023-04-15T09:37:39;4.57;;;1.80;;
75537;SDS011;64121;48.666;8.114;2023-04-15T09:40:07;2.72;;;1.10;;
75537;SDS011;64121;48.666;8.114;2023-04-15T09:42:33;3.42;;;1.20;;
75537;SDS011;64121;48.666;8.114;2023-04-15T09:45:06;3.40;;;1.35;;
75537;SDS011;64121;48.666;8.114;2023-04-15T09:47:32;2.55;;;1.35;;
75537;SDS011;64121;48.666;8.114;2023-04-15T09:49:58;3.25;;;1.95;;
75537;SDS011;64121;48.666;8.114;2023-04-15T09:52:24;4.07;;;1.80;;
75537;SDS011;64121;48.666;8.114;2023-04-15T09:54:51;3.85;;;1.50;;
75537;SDS011;64121;48.666;8.114;2023-04-15T09:57:19;5.88;;;2.00;;
75537;SDS011;64121;48.666;8.114;2023-04-15T09:59:44;4.53;;;1.77;;
75537;SDS011;64121;48.666;8.114;2023-04-15T10:02:09;3.90;;;1.95;;
75537;SDS011;64121;48.666;8.114;2023-04-15T10:04:38;3.50;;;1.58;;
75537;SDS011;64121;48.666;8.114;2023-04-15T10:07:05;3.50;;;1.30;;
75537;SDS011;64121;48.666;8.114;2023-04-15T10:09:32;4.05;;;1.50;;
75537;SDS011;64121;48.666;8.114;2023-04-15T10:12:00;5.75;;;1.40;;
75537;SDS011;64121;48.666;8.114;2023-04-15T10:14:27;4.00;;;1.42;;
75537;SDS011;64121;48.666;8.114;2023-04-15T10:16:58;3.70;;;1.73;;
75537;SDS011;64121;48.666;8.114;2023-04-15T10:19:25;2.67;;;1.40;;
75537;SDS011;64121;48.666;8.114;2023-04-15T10:21:51;3.10;;;1.30;;
75537;SDS011;64121;48.666;8.114;2023-04-15T10:24:18;3.22;;;1.55;;
75537;SDS011;64121;48.666;8.114;2023-04-15T10:26:44;3.67;;;1.83;;
75537;SDS011;64121;48.666;8.114;2023-04-15T10:29:09;3.90;;;1.70;;
75537;SDS011;64121;48.666;8.114;2023-04-15T10:31:36;6.28;;;1.40;;
75537;SDS011;64121;48.666;8.114;2023-04-15T10:34:03;4.97;;;1.65;;
75537;SDS011;64121;48.666;8.114;2023-04-15T10:36:30;5.25;;;1.83;;
75537;SDS011;64121;48.666;8.114;2023-04-15T10:38:55;3.10;;;1.58;;
75537;SDS011;64121;48.666;8.114;2023-04-15T10:41:21;3.40;;;1.80;;
75537;SDS011;64121;48.666;8.114;2023-04-15T10:43:48;4.57;;;2.25;;
75537;SDS011;64121;48.666;8.114;2023-04-15T10:46:17;2.50;;;1.73;;
75537;SDS011;64121;48.666;8.114;2023-04-15T10:48:47;4.45;;;1.77;;
75537;SDS011;64121;48.666;8.114;2023-04-15T10:51:13;4.57;;;1.67;;
75537;SDS011;64121;48.666;8.114;2023-04-15T10:53:38;4.00;;;1.80;;
75537;SDS011;64121;48.666;8.114;2023-04-15T10:56:06;2.63;;;1.52;;
75537;SDS011;64121;48.666;8.114;2023-04-15T10:58:39;5.72;;;2.30;;
75537;SDS011;64121;48.666;8.114;2023-04-15T11:01:06;4.13;;;1.75;;
75537;SDS011;64121;48.666;8.114;2023-04-15T11:03:41;3.55;;;1.48;;
75537;SDS011;64121;48.666;8.114;2023-04-15T11:06:08;4.05;;;1.70;;
75537;SDS011;64121;48.666;8.114;2023-04-15T11:08:52;3.90;;;1.60;;
75537;SDS011;64121;48.666;8.114;2023-04-15T11:11:20;5.60;;;1.50;;
75537;SDS011;64121;48.666;8.114;2023-04-15T11:13:47;3.08;;;1.63;;
75537;SDS011;64121;48.666;8.114;2023-04-15T11:16:13;3.58;;;1.40;;
75537;SDS011;64121;48.666;8.114;2023-04-15T11:18:39;3.78;;;1.20;;
75537;SDS011;64121;48.666;8.114;2023-04-15T11:21:05;3.60;;;2.00;;
75537;SDS011;64121;48.666;8.114;2023-04-15T11:23:36;3.70;;;1.55;;
75537;SDS011;64121;48.666;8.114;2023-04-15T11:26:03;4.70;;;1.58;;
75537;SDS011;64121;48.666;8.114;2023-04-15T11:28:30;3.58;;;1.60;;
75537;SDS011;64121;48.666;8.114;2023-04-15T11:30:56;4.65;;;1.70;;
75537;SDS011;64121;48.666;8.114;2023-04-15T11:33:23;3.75;;;1.35;;
75537;SDS011;64121;48.666;8.114;2023-04-15T11:35:49;4.20;;;1.90;;
75537;SDS011;64121;48.666;8.114;2023-04-15T11:38:14;3.10;;;1.58;;
75537;SDS011;64121;48.666;8.114;2023-04-15T11:40:42;4.60;;;1.90;;
75537;SDS011;64121;48.666;8.114;2023-04-15T11:43:08;3.95;;;1.58;;
75537;SDS011;64121;48.666;8.114;2023-04-15T11:45:35;4.05;;;1.60;;
75537;SDS011;64121;48.666;8.114;2023-04-15T11:48:04;2.83;;;1.70;;
75537;SDS011;64121;48.666;8.114;2023-04-15T11:50:31;5.05;;;1.63;;
75537;SDS011;64121;48.666;8.114;2023-04-15T11:52:56;2.67;;;1.50;;
75537;SDS011;64121;48.666;8.114;2023-04-15T11:55:23;6.28;;;2.00;;
75537;SDS011;64121;48.666;8.114;2023-04-15T11:58:04;2.75;;;1.75;;
75537;SDS011;64121;48.666;8.114;2023-04-15T12:00:30;3.75;;;1.70;;
75537;SDS011;64121;48.666;8.114;2023-04-15T12:03:10;4.03;;;1.73;;
75537;SDS011;64121;48.666;8.114;2023-04-15T12:05:36;5.13;;;2.63;;
75537;SDS011;64121;48.666;8.114;2023-04-15T12:08:01;2.83;;;1.55;;
75537;SDS011;64121;48.666;8.114;2023-04-15T12:10:26;5.53;;;2.20;;
75537;SDS011;64121;48.666;8.114;2023-04-15T12:12:53;6.50;;;2.17;;
75537;SDS011;64121;48.666;8.114;2023-04-15T12:15:20;5.32;;;1.90;;
75537;SDS011;64121;48.666;8.114;2023-04-15T12:17:46;2.60;;;1.45;;
75537;SDS011;64121;48.666;8.114;2023-04-15T12:20:11;3.60;;;1.50;;
75537;SDS011;64121;48.666;8.114;2023-04-15T12:22:37;4.72;;;1.67;;
75537;SDS011;64121;48.666;8.114;2023-04-15T12:25:02;2.75;;;1.45;;
75537;SDS011;64121;48.666;8.114;2023-04-15T12:27:28;6.75;;;1.98;;
75537;SDS011;64121;48.666;8.114;2023-04-15T12:30:03;4.22;;;1.50;;
75537;SDS011;64121;48.666;8.114;2023-04-15T12:32:29;4.65;;;1.90;;
75537;SDS011;64121;48.666;8.114;2023-04-15T12:34:59;4.78;;;2.05;;
75537;SDS011;64121;48.666;8.114;2023-04-15T12:37:24;3.40;;;1.65;;
75537;SDS011;64121;48.666;8.114;2023-04-15T12:39:50;3.45;;;2.00;;
75537;SDS011;64121;48.666;8.114;2023-04-15T12:42:15;3.40;;;1.50;;
75537;SDS011;64121;48.666;8.114;2023-04-15T12:44:41;3.75;;;2.05;;
75537;SDS011;64121;48.666;8.114;2023-04-15T12:47:08;8.23;;;6.05;;
75537;SDS011;64121;48.666;8.114;2023-04-15T12:49:34;4.03;;;2.30;;
75537;SDS011;64121;48.666;8.114;2023-04-15T12:52:00;3.60;;;1.90;;
75537;SDS011;64121;48.666;8.114;2023-04-15T12:54:26;4.35;;;2.10;;
75537;SDS011;64121;48.666;8.114;2023-04-15T12:56:52;4.25;;;2.17;;
75537;SDS011;64121;48.666;8.114;2023-04-15T12:59:18;5.18;;;2.22;;
75537;SDS011;64121;48.666;8.114;2023-04-15T13:01:44;5.72;;;2.20;;
75537;SDS011;64121;48.666;8.114;2023-04-15T13:04:12;5.30;;;2.13;;
75537;SDS011;64121;48.666;8.114;2023-04-15T13:06:37;4.07;;;2.22;;
75537;SDS011;64121;48.666;8.114;2023-04-15T13:09:03;6.28;;;1.95;;
75537;SDS011;64121;48.666;8.114;2023-04-15T13:11:29;5.40;;;2.15;;
75537;SDS011;64121;48.666;8.114;2023-04-15T13:13:54;3.33;;;2.22;;
75537;SDS011;64121;48.666;8.114;2023-04-15T13:16:20;5.38;;;2.22;;
75537;SDS011;64121;48.666;8.114;2023-04-15T13:18:45;5.72;;;3.10;;
75537;SDS011;64121;48.666;8.114;2023-04-15T13:21:12;4.32;;;2.03;;
75537;SDS011;64121;48.666;8.114;2023-04-15T13:23:37;6.18;;;2.83;;
75537;SDS011;64121;48.666;8.114;2023-04-15T13:26:03;4.13;;;3.10;;
75537;SDS011;64121;48.666;8.114;2023-04-15T13:28:28;6.07;;;3.22;;
75537;SDS011;64121;48.666;8.114;2023-04-15T13:30:53;6.45;;;2.92;;
75537;SDS011;64121;48.666;8.114;2023-04-15T13:33:19;4.18;;;2.40;;
75537;SDS011;64121;48.666;8.114;2023-04-15T13:35:44;8.35;;;2.58;;
75537;SDS011;64121;48.666;8.114;2023-04-15T13:38:11;6.05;;;3.08;;
75537;SDS011;64121;48.666;8.114;2023-04-15T13:40:36;6.25;;;2.85;;
75537;SDS011;64121;48.666;8.114;2023-04-15T13:43:02;6.22;;;2.70;;
75537;SDS011;64121;48.666;8.114;2023-04-15T13:45:27;4.18;;;2.70;;
75537;SDS011;64121;48.666;8.114;2023-04-15T13:47:53;4.70;;;2.75;;
75537;SDS011;64121;48.666;8.114;2023-04-15T13:50:19;6.20;;;2.60;;
75537;SDS011;64121;48.666;8.114;2023-04-15T13:52:44;4.65;;;2.25;;
75537;SDS011;64121;48.666;8.114;2023-04-15T13:55:11;5.65;;;2.47;;
75537;SDS011;64121;48.666;8.114;2023-04-15T13:57:36;4.90;;;2.42;;
75537;SDS011;64121;48.666;8.114;2023-04-15T14:00:02;4.68;;;2.30;;
75537;SDS011;64121;48.666;8.114;2023-04-15T14:02:28;5.88;;;2.22;;
75537;SDS011;64121;48.666;8.114;2023-04-15T14:04:53;4.50;;;1.70;;
75537;SDS011;64121;48.666;8.114;2023-04-15T14:07:19;4.45;;;2.45;;
75537;SDS011;64121;48.666;8.114;2023-04-15T14:09:44;4.30;;;2.08;;
75537;SDS011;64121;48.666;8.114;2023-04-15T14:12:11;2.90;;;2.33;;
75537;SDS011;64121;48.666;8.114;2023-04-15T14:14:36;5.60;;;2.30;;
75537;SDS011;64121;48.666;8.114;2023-04-15T14:17:02;3.88;;;1.95;;
75537;SDS011;64121;48.666;8.114;2023-04-15T14:19:28;3.53;;;2.08;;
75537;SDS011;64121;48.666;8.114;2023-04-15T14:21:54;5.82;;;2.25;;
75537;SDS011;64121;48.666;8.114;2023-04-15T14:24:20;4.57;;;2.42;;
75537;SDS011;64121;48.666;8.114;2023-04-15T14:26:45;3.95;;;2.00;;
75537;SDS011;64121;48.666;8.114;2023-04-15T14:29:12;5.88;;;2.55;;
75537;SDS011;64121;48.666;8.114;2023-04-15T14:31:37;7.75;;;2.35;;
75537;SDS011;64121;48.666;8.114;2023-04-15T14:34:03;3.80;;;1.75;;
75537;SDS011;64121;48.666;8.114;2023-04-15T14:36:28;3.28;;;2.15;;
75537;SDS011;64121;48.666;8.114;2023-04-15T14:38:54;5.13;;;1.98;;
75537;SDS011;64121;48.666;8.114;2023-04-15T14:41:19;4.63;;;2.33;;